createdAt,value
2023-04-07T00:00:08.826Z,99.90
2023-04-07T00:03:11.407Z,99.90
2023-04-07T00:05:57.464Z,99.90
2023-04-07T00:08:30.481Z,99.90
2023-04-07T00:11:06.363Z,99.90
2023-04-07T00:13:44.467Z,99.90
2023-04-07T00:16:29.186Z,99.90
2023-04-07T00:19:11.928Z,99.90
2023-04-07T00:21:45.913Z,99.90
2023-04-07T00:24:34.339Z,99.90
2023-04-07T00:27:10.371Z,99.90
2023-04-07T00:29:48.395Z,99.90
2023-04-07T00:32:31.865Z,99.90
2023-04-07T00:35:18.596Z,99.90
2023-04-07T00:37:54.044Z,99.90
2023-04-07T00:40:32.495Z,99.90
2023-04-07T00:43:12.661Z,99.90
2023-04-07T00:45:50.696Z,99.90
2023-04-07T00:48:27.370Z,99.90
2023-04-07T00:51:09.232Z,99.90
2023-04-07T00:53:46.928Z,99.90
2023-04-07T00:56:28.097Z,99.90
2023-04-07T00:59:14.743Z,99.90
2023-04-07T01:02:01.581Z,99.90
2023-04-07T01:04:41.066Z,99.90
2023-04-07T01:07:20.234Z,99.90
2023-04-07T01:10:04.029Z,99.90
2023-04-07T01:12:52.154Z,99.90
2023-04-07T01:15:50.238Z,99.90
2023-04-07T01:18:32.649Z,99.90
2023-04-07T01:21:08.276Z,99.90
2023-04-07T01:24:08.465Z,99.90
2023-04-07T01:26:51.131Z,99.90
2023-04-07T01:29:48.202Z,99.90
2023-04-07T01:32:27.085Z,99.90
2023-04-07T01:34:59.320Z,99.90
2023-04-07T01:37:38.028Z,99.90
2023-04-07T01:40:14.205Z,99.90
2023-04-07T01:42:48.260Z,99.90
2023-04-07T01:45:26.939Z,99.90
2023-04-07T01:48:14.233Z,99.90
2023-04-07T01:50:53.381Z,99.90
2023-04-07T01:53:30.655Z,99.90
2023-04-07T01:56:03.481Z,99.90
2023-04-07T01:58:44.717Z,99.90
2023-04-07T02:01:27.958Z,99.90
2023-04-07T02:04:11.798Z,99.90
2023-04-07T02:06:50.390Z,99.90
2023-04-07T02:09:29.102Z,99.90
2023-04-07T02:12:09.546Z,99.90
2023-04-07T02:14:53.358Z,99.90
2023-04-07T02:17:32.336Z,99.90
2023-04-07T02:20:13.402Z,99.90
2023-04-07T02:22:56.284Z,99.90
2023-04-07T02:25:33.702Z,99.90
2023-04-07T02:28:05.459Z,99.90
2023-04-07T02:30:36.813Z,99.90
2023-04-07T02:33:22.979Z,99.90
2023-04-07T02:36:15.281Z,99.90
2023-04-07T02:38:54.310Z,99.90
2023-04-07T02:41:33.508Z,99.90
2023-04-07T02:44:12.487Z,99.90
2023-04-07T02:46:46.505Z,99.90
2023-04-07T02:49:20.036Z,99.90
2023-04-07T02:52:03.761Z,99.90
2023-04-07T02:54:46.983Z,99.90
2023-04-07T02:57:28.250Z,99.90
2023-04-07T03:00:05.828Z,99.90
2023-04-07T03:02:57.013Z,99.90
2023-04-07T03:05:43.932Z,99.90
2023-04-07T03:08:24.093Z,99.90
2023-04-07T03:10:57.863Z,99.90
2023-04-07T03:13:38.026Z,99.90
2023-04-07T03:16:14.302Z,99.90
2023-04-07T03:19:09.447Z,99.90
2023-04-07T03:21:51.898Z,99.90
2023-04-07T03:24:32.291Z,99.90
2023-04-07T03:27:14.948Z,99.90
2023-04-07T03:29:55.252Z,99.90
2023-04-07T03:32:34.435Z,99.90
2023-04-07T03:35:12.136Z,99.90
2023-04-07T03:37:52.387Z,99.90
2023-04-07T03:40:32.189Z,99.90
2023-04-07T03:43:12.814Z,99.90
2023-04-07T03:45:46.297Z,99.90
2023-04-07T03:48:27.432Z,99.90
2023-04-07T03:51:09.418Z,99.90
2023-04-07T03:53:53.061Z,99.90
2023-04-07T03:56:46.626Z,99.90
2023-04-07T03:59:31.524Z,99.90
2023-04-07T04:02:15.376Z,99.90
2023-04-07T04:05:08.897Z,99.90
2023-04-07T04:07:49.496Z,99.90
2023-04-07T04:10:26.710Z,99.90
2023-04-07T04:13:18.049Z,99.90
2023-04-07T04:15:57.745Z,99.90
2023-04-07T04:18:37.122Z,99.90
2023-04-07T04:21:30.177Z,99.90
2023-04-07T04:24:15.311Z,99.90
2023-04-07T04:27:06.488Z,99.90
2023-04-07T04:29:46.937Z,99.90
2023-04-07T04:32:25.611Z,99.90
2023-04-07T04:35:03.093Z,99.90
2023-04-07T04:37:47.826Z,99.90
2023-04-07T04:40:22.670Z,99.90
2023-04-07T04:43:01.472Z,99.90
2023-04-07T04:45:38.996Z,99.90
2023-04-07T04:48:18.728Z,99.90
2023-04-07T04:50:54.937Z,99.90
2023-04-07T04:53:34.140Z,99.90
2023-04-07T04:56:15.678Z,99.90
2023-04-07T04:59:01.505Z,99.90
2023-04-07T05:02:04.926Z,99.90
2023-04-07T05:04:51.087Z,99.90
2023-04-07T05:07:34.529Z,99.90
2023-04-07T05:10:15.721Z,99.90
2023-04-07T05:13:00.460Z,99.90
2023-04-07T05:15:45.676Z,99.90
2023-04-07T05:18:28.556Z,99.90
2023-04-07T05:21:08.003Z,99.90
2023-04-07T05:23:48.020Z,99.90
2023-04-07T05:26:23.096Z,99.90
2023-04-07T05:29:00.369Z,99.90
2023-04-07T05:31:37.173Z,99.90
2023-04-07T05:34:27.124Z,99.90
2023-04-07T05:37:03.724Z,99.90
2023-04-07T05:39:42.853Z,99.90
2023-04-07T05:42:19.854Z,99.90
2023-04-07T05:44:58.540Z,99.90
2023-04-07T05:47:37.434Z,99.90
2023-04-07T05:50:23.334Z,99.90
2023-04-07T05:52:58.741Z,99.90
2023-04-07T05:55:35.161Z,99.90
2023-04-07T05:58:24.151Z,99.90
2023-04-07T06:01:06.133Z,99.90
2023-04-07T06:03:41.450Z,99.90
2023-04-07T06:06:26.481Z,99.90
2023-04-07T06:09:13.389Z,99.90
2023-04-07T06:11:50.923Z,99.90
2023-04-07T06:14:25.940Z,99.90
2023-04-07T06:17:02.637Z,99.90
2023-04-07T06:19:34.912Z,99.90
2023-04-07T06:22:13.387Z,99.90
2023-04-07T06:24:46.908Z,99.90
2023-04-07T06:27:22.581Z,99.90
2023-04-07T06:30:00.726Z,99.90
2023-04-07T06:32:48.716Z,99.90
2023-04-07T06:35:24.079Z,99.90
2023-04-07T06:38:06.163Z,99.90
2023-04-07T06:40:38.996Z,99.90
2023-04-07T06:43:22.260Z,99.90
2023-04-07T06:46:27.312Z,99.90
2023-04-07T06:49:02.992Z,99.90
2023-04-07T06:51:38.223Z,99.90
2023-04-07T06:54:17.416Z,99.90
2023-04-07T06:56:54.712Z,99.90
2023-04-07T06:59:27.331Z,99.90
2023-04-07T07:02:01.401Z,99.90
2023-04-07T07:04:35.176Z,99.90
2023-04-07T07:07:08.883Z,99.90
2023-04-07T07:09:51.368Z,99.90
2023-04-07T07:12:25.056Z,99.90
2023-04-07T07:15:01.436Z,99.90
2023-04-07T07:17:39.942Z,99.90
2023-04-07T07:20:20.990Z,99.90
2023-04-07T07:22:57.395Z,99.90
2023-04-07T07:25:38.124Z,99.90
2023-04-07T07:28:11.508Z,99.90
2023-04-07T07:30:58.451Z,99.90
2023-04-07T07:33:30.177Z,99.90
2023-04-07T07:36:11.238Z,99.90
2023-04-07T07:38:54.815Z,99.90
2023-04-07T07:41:34.012Z,99.90
2023-04-07T07:44:13.685Z,99.90
2023-04-07T07:46:47.362Z,99.90
2023-04-07T07:49:22.934Z,99.90
2023-04-07T07:52:00.522Z,99.90
2023-04-07T07:54:35.318Z,99.90
2023-04-07T07:57:15.901Z,99.90
2023-04-07T07:59:48.968Z,99.90
2023-04-07T08:02:34.413Z,99.90
2023-04-07T08:05:12.089Z,99.90
2023-04-07T08:07:48.030Z,99.90
2023-04-07T08:10:30.908Z,99.90
2023-04-07T08:13:09.923Z,99.90
2023-04-07T08:15:46.837Z,99.90
2023-04-07T08:18:26.448Z,99.90
2023-04-07T08:21:01.345Z,99.90
2023-04-07T08:23:37.499Z,99.90
2023-04-07T08:26:17.638Z,99.90
2023-04-07T08:29:03.451Z,99.90
2023-04-07T08:31:40.299Z,99.90
2023-04-07T08:34:24.515Z,99.90
2023-04-07T08:37:10.196Z,99.90
2023-04-07T08:39:58.918Z,99.90
2023-04-07T08:42:40.111Z,99.60
2023-04-07T08:45:28.907Z,99.80
2023-04-07T08:48:13.891Z,99.90
2023-04-07T08:50:50.202Z,99.40
2023-04-07T08:53:36.435Z,99.70
2023-04-07T08:56:18.744Z,99.70
2023-04-07T08:58:59.091Z,99.90
2023-04-07T09:01:47.059Z,99.60
2023-04-07T09:04:28.367Z,98.60
2023-04-07T09:07:19.984Z,98.40
2023-04-07T09:10:16.151Z,98.60
2023-04-07T09:13:07.881Z,98.50
2023-04-07T09:15:56.540Z,98.00
2023-04-07T09:18:44.191Z,97.70
2023-04-07T09:21:29.139Z,97.90
2023-04-07T09:24:05.198Z,97.80
2023-04-07T09:26:47.892Z,97.40
2023-04-07T09:29:26.970Z,96.90
2023-04-07T09:32:02.376Z,97.00
2023-04-07T09:34:48.029Z,97.10
2023-04-07T09:37:28.143Z,96.70
2023-04-07T09:40:08.416Z,97.00
2023-04-07T09:42:51.095Z,96.30
2023-04-07T09:45:35.737Z,96.50
2023-04-07T09:48:33.313Z,96.20
2023-04-07T09:51:31.570Z,96.40
2023-04-07T09:54:12.525Z,96.50
2023-04-07T09:56:53.766Z,97.00
2023-04-07T09:59:45.912Z,96.70
2023-04-07T10:02:24.719Z,96.60
2023-04-07T10:05:07.894Z,96.10
2023-04-07T10:07:52.337Z,96.40
2023-04-07T10:10:28.801Z,96.70
2023-04-07T10:13:06.054Z,95.90
2023-04-07T10:15:40.252Z,96.20
2023-04-07T10:18:29.667Z,96.50
2023-04-07T10:21:15.326Z,96.50
2023-04-07T10:24:07.399Z,96.30
2023-04-07T10:26:52.562Z,96.40
2023-04-07T10:29:38.098Z,96.40
2023-04-07T10:32:15.735Z,95.60
2023-04-07T10:35:06.450Z,95.90
2023-04-07T10:37:43.218Z,95.80
2023-04-07T10:40:36.818Z,95.70
2023-04-07T10:43:22.878Z,95.70
2023-04-07T10:46:09.256Z,96.00
2023-04-07T10:48:45.507Z,95.50
2023-04-07T10:51:29.949Z,95.10
2023-04-07T10:54:25.008Z,95.20
2023-04-07T10:57:21.746Z,95.40
2023-04-07T11:00:28.334Z,95.60
2023-04-07T11:03:20.105Z,95.80
2023-04-07T11:06:09.119Z,95.70
2023-04-07T11:08:53.733Z,95.20
2023-04-07T11:11:52.297Z,94.00
2023-04-07T11:14:31.221Z,93.90
2023-04-07T11:17:05.926Z,94.10
2023-04-07T11:19:59.494Z,94.40
2023-04-07T11:22:42.119Z,94.30
2023-04-07T11:25:37.840Z,93.00
2023-04-07T11:28:17.667Z,93.00
2023-04-07T11:30:57.968Z,92.90
2023-04-07T11:33:41.508Z,93.20
2023-04-07T11:36:25.213Z,93.20
2023-04-07T11:39:01.513Z,92.50
2023-04-07T11:41:39.707Z,92.20
2023-04-07T11:44:18.235Z,92.70
2023-04-07T11:46:58.506Z,92.00
2023-04-07T11:49:36.792Z,92.40
2023-04-07T11:52:11.513Z,92.40
2023-04-07T11:54:53.870Z,91.90
2023-04-07T11:57:33.525Z,92.50
2023-04-07T12:00:13.871Z,92.50
2023-04-07T12:02:51.721Z,92.40
2023-04-07T12:05:29.737Z,92.60
2023-04-07T12:08:07.783Z,92.70
2023-04-07T12:10:52.168Z,92.90
2023-04-07T12:13:39.970Z,93.10
2023-04-07T12:16:14.205Z,93.00
2023-04-07T12:18:52.749Z,93.30
2023-04-07T12:21:26.787Z,93.70
2023-04-07T12:24:02.182Z,94.20
2023-04-07T12:26:50.342Z,94.40
2023-04-07T12:29:31.683Z,94.50
2023-04-07T12:32:11.979Z,94.80
2023-04-07T12:34:48.698Z,94.80
2023-04-07T12:37:24.641Z,94.60
2023-04-07T12:39:59.464Z,94.70
2023-04-07T12:42:35.682Z,94.80
2023-04-07T12:45:20.832Z,94.80
2023-04-07T12:47:56.996Z,94.80
2023-04-07T12:50:32.060Z,95.00
2023-04-07T12:53:13.710Z,95.00
2023-04-07T12:55:50.591Z,94.80
2023-04-07T12:58:32.062Z,95.00
2023-04-07T13:01:11.037Z,95.30
2023-04-07T13:03:45.179Z,95.80
2023-04-07T13:06:25.712Z,96.10
2023-04-07T13:09:01.350Z,96.30
2023-04-07T13:11:36.307Z,96.50
2023-04-07T13:14:22.215Z,96.90
2023-04-07T13:17:01.228Z,97.50
2023-04-07T13:19:37.460Z,98.10
2023-04-07T13:22:10.599Z,98.70
2023-04-07T13:24:45.620Z,98.90
2023-04-07T13:27:25.740Z,99.40
2023-04-07T13:30:03.332Z,99.90
2023-04-07T13:32:35.936Z,99.90
2023-04-07T13:35:16.534Z,99.90
2023-04-07T13:38:09.494Z,99.90
2023-04-07T13:40:45.952Z,99.90
2023-04-07T13:43:26.061Z,99.90
2023-04-07T13:46:06.284Z,99.90
2023-04-07T13:48:46.929Z,99.90
2023-04-07T13:51:25.507Z,99.90
2023-04-07T13:54:08.877Z,99.90
2023-04-07T13:56:47.407Z,99.90
2023-04-07T13:59:23.026Z,99.90
2023-04-07T14:02:10.983Z,99.90
2023-04-07T14:04:58.337Z,99.90
2023-04-07T14:07:30.930Z,99.90
2023-04-07T14:10:10.573Z,99.90
2023-04-07T14:12:59.308Z,99.90
2023-04-07T14:15:37.791Z,99.90
2023-04-07T14:18:28.607Z,99.90
2023-04-07T14:21:10.403Z,99.90
2023-04-07T14:23:47.773Z,99.90
2023-04-07T14:26:34.242Z,99.90
2023-04-07T14:29:14.160Z,99.90
2023-04-07T14:31:53.959Z,99.90
2023-04-07T14:34:37.459Z,99.90
2023-04-07T14:37:25.931Z,99.90
2023-04-07T14:40:13.842Z,99.90
2023-04-07T14:43:06.947Z,99.50
2023-04-07T14:46:06.704Z,99.20
2023-04-07T14:48:44.571Z,98.90
2023-04-07T14:51:22.422Z,98.80
2023-04-07T14:54:04.722Z,98.00
2023-04-07T14:56:50.239Z,98.10
2023-04-07T14:59:36.425Z,97.50
2023-04-07T15:02:22.941Z,97.50
2023-04-07T15:05:18.852Z,95.90
2023-04-07T15:08:05.416Z,96.90
2023-04-07T15:10:43.485Z,95.50
2023-04-07T15:13:28.506Z,95.70
2023-04-07T15:16:16.034Z,95.70
2023-04-07T15:19:06.280Z,95.50
2023-04-07T15:21:41.864Z,95.00
2023-04-07T15:24:32.521Z,95.60
2023-04-07T15:27:28.546Z,96.00
2023-04-07T15:30:12.352Z,95.60
2023-04-07T15:33:03.127Z,95.90
2023-04-07T15:35:57.237Z,95.90
2023-04-07T15:38:45.164Z,95.30
2023-04-07T15:41:26.331Z,95.60
2023-04-07T15:44:11.149Z,95.70
2023-04-07T15:46:55.558Z,95.20
2023-04-07T15:49:38.153Z,95.20
2023-04-07T15:52:14.705Z,94.80
2023-04-07T15:54:52.369Z,94.50
2023-04-07T15:57:29.895Z,94.30
2023-04-07T16:00:05.704Z,94.30
2023-04-07T16:02:47.509Z,94.30
2023-04-07T16:05:29.147Z,94.40
2023-04-07T16:08:13.247Z,94.00
2023-04-07T16:11:05.329Z,93.90
2023-04-07T16:13:45.291Z,93.80
2023-04-07T16:16:33.378Z,94.00
2023-04-07T16:19:12.250Z,94.00
2023-04-07T16:21:54.037Z,94.10
2023-04-07T16:24:30.827Z,94.10
2023-04-07T16:27:04.457Z,94.30
2023-04-07T16:29:55.797Z,94.20
2023-04-07T16:32:32.424Z,94.20
2023-04-07T16:35:10.642Z,94.40
2023-04-07T16:37:47.675Z,94.20
2023-04-07T16:40:32.071Z,94.40
2023-04-07T16:43:16.365Z,93.80
2023-04-07T16:45:58.311Z,93.00
2023-04-07T16:48:42.295Z,93.60
2023-04-07T16:51:30.328Z,93.90
2023-04-07T16:54:07.335Z,94.10
2023-04-07T16:56:44.758Z,94.30
2023-04-07T16:59:25.166Z,94.40
2023-04-07T17:02:00.904Z,94.60
2023-04-07T17:04:43.934Z,94.70
2023-04-07T17:07:24.115Z,95.10
2023-04-07T17:10:04.164Z,95.20
2023-04-07T17:12:45.426Z,95.40
2023-04-07T17:15:26.537Z,95.60
2023-04-07T17:18:01.385Z,95.90
2023-04-07T17:20:38.809Z,96.00
2023-04-07T17:23:23.195Z,95.70
2023-04-07T17:26:00.950Z,95.70
2023-04-07T17:28:40.985Z,95.90
2023-04-07T17:31:17.954Z,95.80
2023-04-07T17:33:59.656Z,95.20
2023-04-07T17:36:37.688Z,95.00
2023-04-07T17:39:23.018Z,94.60
2023-04-07T17:42:00.767Z,94.20
2023-04-07T17:44:35.398Z,93.80
2023-04-07T17:47:15.055Z,93.60
2023-04-07T17:49:49.213Z,93.60
2023-04-07T17:52:22.595Z,93.30
2023-04-07T17:55:11.762Z,93.20
2023-04-07T17:58:01.761Z,93.00
2023-04-07T18:00:45.567Z,93.10
2023-04-07T18:03:27.309Z,93.00
2023-04-07T18:06:04.789Z,92.90
2023-04-07T18:08:41.544Z,93.20
2023-04-07T18:11:31.363Z,92.90
2023-04-07T18:14:06.182Z,93.00
2023-04-07T18:16:41.650Z,93.10
2023-04-07T18:19:26.386Z,93.20
2023-04-07T18:22:03.038Z,93.10
2023-04-07T18:24:40.648Z,93.10
2023-04-07T18:27:18.287Z,93.00
2023-04-07T18:29:56.362Z,92.80
2023-04-07T18:32:34.993Z,92.90
2023-04-07T18:35:13.795Z,93.10
2023-04-07T18:37:53.413Z,93.10
2023-04-07T18:40:30.441Z,93.30
2023-04-07T18:43:06.274Z,93.40
2023-04-07T18:45:43.259Z,93.30
2023-04-07T18:48:23.519Z,93.50
2023-04-07T18:51:02.467Z,93.30
2023-04-07T18:53:41.996Z,93.30
2023-04-07T18:56:15.863Z,93.10
2023-04-07T18:58:58.543Z,93.30
2023-04-07T19:01:48.920Z,93.30
2023-04-07T19:04:24.593Z,93.40
2023-04-07T19:07:00.836Z,93.30
2023-04-07T19:09:58.244Z,93.50
2023-04-07T19:12:32.232Z,93.30
2023-04-07T19:15:19.590Z,93.40
2023-04-07T19:17:58.097Z,93.40
2023-04-07T19:20:31.912Z,93.40
2023-04-07T19:23:07.864Z,93.40
2023-04-07T19:25:47.915Z,93.50
2023-04-07T19:28:35.135Z,93.50
2023-04-07T19:31:16.052Z,93.60
2023-04-07T19:33:52.989Z,93.70
2023-04-07T19:36:25.118Z,93.80
2023-04-07T19:39:05.803Z,93.80
2023-04-07T19:41:41.850Z,94.00
2023-04-07T19:44:22.928Z,94.10
2023-04-07T19:47:04.848Z,94.20
2023-04-07T19:49:38.391Z,94.20
2023-04-07T19:52:10.002Z,94.20
2023-04-07T19:54:44.327Z,94.40
2023-04-07T19:57:19.336Z,94.40
2023-04-07T19:59:58.888Z,94.40
2023-04-07T20:02:35.010Z,94.60
2023-04-07T20:05:16.893Z,94.60
2023-04-07T20:07:56.823Z,94.70
2023-04-07T20:10:39.753Z,94.80
2023-04-07T20:13:24.500Z,94.90
2023-04-07T20:16:00.111Z,94.90
2023-04-07T20:18:38.904Z,95.00
2023-04-07T20:21:21.188Z,95.00
2023-04-07T20:24:02.634Z,95.00
2023-04-07T20:26:43.146Z,95.10
2023-04-07T20:29:27.244Z,95.20
2023-04-07T20:32:02.342Z,95.20
2023-04-07T20:34:45.347Z,95.30
2023-04-07T20:37:23.983Z,95.30
2023-04-07T20:40:02.098Z,95.40
2023-04-07T20:42:39.363Z,95.50
2023-04-07T20:45:17.363Z,95.50
2023-04-07T20:47:59.309Z,95.70
2023-04-07T20:50:41.473Z,95.80
2023-04-07T20:53:19.060Z,95.90
2023-04-07T20:56:01.228Z,96.00
2023-04-07T20:58:41.299Z,96.10
2023-04-07T21:01:16.902Z,96.10
2023-04-07T21:03:58.375Z,96.20
2023-04-07T21:06:37.764Z,96.30
2023-04-07T21:09:20.182Z,96.30
2023-04-07T21:12:05.641Z,96.50
2023-04-07T21:14:40.029Z,96.40
2023-04-07T21:17:11.907Z,96.60
2023-04-07T21:19:55.308Z,96.60
2023-04-07T21:22:30.506Z,96.70
2023-04-07T21:25:11.183Z,96.80
2023-04-07T21:27:46.393Z,96.80
2023-04-07T21:30:20.040Z,96.80
2023-04-07T21:32:52.276Z,96.90
2023-04-07T21:35:29.036Z,96.90
2023-04-07T21:38:09.055Z,96.90
2023-04-07T21:40:47.558Z,97.00
2023-04-07T21:43:25.012Z,97.00
2023-04-07T21:45:59.121Z,97.10
2023-04-07T21:48:35.634Z,97.10
2023-04-07T21:51:25.455Z,97.20
2023-04-07T21:54:01.953Z,97.20
2023-04-07T21:56:38.741Z,97.20
2023-04-07T21:59:17.993Z,97.30
2023-04-07T22:01:52.870Z,97.40
2023-04-07T22:04:28.926Z,97.40
2023-04-07T22:07:02.259Z,97.30
2023-04-07T22:09:39.154Z,97.40
2023-04-07T22:12:12.657Z,97.30
2023-04-07T22:14:52.593Z,97.30
2023-04-07T22:17:28.712Z,97.40
2023-04-07T22:20:06.132Z,97.50
2023-04-07T22:22:38.496Z,97.60
2023-04-07T22:25:15.513Z,97.60
2023-04-07T22:27:53.194Z,97.60
2023-04-07T22:30:25.962Z,97.70
2023-04-07T22:32:57.785Z,97.70
2023-04-07T22:35:34.137Z,97.60
2023-04-07T22:38:15.096Z,97.80
2023-04-07T22:40:51.754Z,97.80
2023-04-07T22:43:30.589Z,97.90
2023-04-07T22:46:05.051Z,97.90
2023-04-07T22:48:41.808Z,98.10
2023-04-07T22:51:20.956Z,98.10
2023-04-07T22:53:55.556Z,98.20
2023-04-07T22:56:39.038Z,98.10
2023-04-07T22:59:18.552Z,98.10
2023-04-07T23:01:54.653Z,98.10
2023-04-07T23:04:29.685Z,98.20
2023-04-07T23:07:02.352Z,98.30
2023-04-07T23:09:45.532Z,98.30
2023-04-07T23:12:19.726Z,98.50
2023-04-07T23:14:59.908Z,98.50
2023-04-07T23:17:37.506Z,98.40
2023-04-07T23:20:15.003Z,98.60
2023-04-07T23:22:55.696Z,98.80
2023-04-07T23:25:34.036Z,99.00
2023-04-07T23:28:13.077Z,98.80
2023-04-07T23:30:46.000Z,98.80
2023-04-07T23:33:22.906Z,98.90
2023-04-07T23:36:03.645Z,99.10
2023-04-07T23:38:40.515Z,99.20
2023-04-07T23:41:17.783Z,99.30
2023-04-07T23:44:05.243Z,99.30
2023-04-07T23:46:42.072Z,99.40
2023-04-07T23:49:21.090Z,99.30
2023-04-07T23:52:05.810Z,99.30
2023-04-07T23:54:47.221Z,99.40
2023-04-07T23:57:21.554Z,99.50
